San Diego, California
Traffic Map
Current Weather Conditions
San Diego, California
Few Clouds
Few Clouds
23°
Feels Like: 23°
Wind Chill: 23° Ceiling: Unl
Heat Index: 23° Visibility: 9mi
Dew Point: 15° Wind: 5mph
Humidity: 61% Direction: 310° (NW)
Pressure: 29.91in Gusts: 0mph
Raw Report DataKSAN 210151Z 31004KT 9SM FEW012 23/15 A2991 RMK AO2 SLP128 T02280150
Traffic Incident Summary
Active as of:
Severity:
Category:
InformationThere was an issue retrieving the traffic information for this location. Please try a different location or try again shortly.
Advertisements
Track Severe Weather on mobile